Time;durP1;ratioP1;P1;durP2;ratioP2;P2;SDS_P1;SDS_P2;PMS_P1;PMS_P2;Temp;Humidity;BMP_temperature;BMP_pressure;BME280_temperature;BME280_humidity;BME280_pressure;Samples;Min_cycle;Max_cycle;Signal;HPM_P1;HPM_P2
2024/01/30 00:01:37;;;;;;;9.82;4.43;;;2.80;99.90;;;1.26;82.23;102458.72;5046229;28;20026;-84
2024/01/30 00:04:04;;;;;;;20.45;5.78;;;;;;;1.27;82.78;102460.44;5029545;28;20099;-83
2024/01/30 00:06:29;;;;;;;79.60;24.92;;;2.80;99.90;;;1.30;82.77;102452.72;5046610;28;20029;-84
2024/01/30 00:08:55;;;;;;;125.10;35.15;;;2.80;99.90;;;1.30;82.68;102450.13;5030805;28;20038;-82
2024/01/30 00:11:21;;;;;;;489.02;136.45;;;2.80;99.90;;;1.32;82.47;102456.25;5047678;28;20029;-84
2024/01/30 00:13:54;;;;;;;444.88;119.28;;;2.80;99.90;;;1.29;82.93;102452.69;5026946;28;20029;-84
2024/01/30 00:16:25;;;;;;;247.98;65.38;;;2.80;99.90;;;1.32;82.65;102456.25;5031443;28;20080;-84
2024/01/30 00:19:00;;;;;;;14.13;5.60;;;2.80;99.90;;;1.30;82.75;102457.94;5038652;28;20040;-83
2024/01/30 00:21:28;;;;;;;7.93;4.38;;;;;;;1.29;82.49;102453.56;5027280;28;20037;-84
2024/01/30 00:23:53;;;;;;;10.40;4.55;;;2.80;99.90;;;1.32;83.09;102463.13;5048887;28;20549;-83
2024/01/30 00:26:24;;;;;;;16.20;5.88;;;;;;;1.32;83.09;102458.84;5042699;28;20025;-83
2024/01/30 00:28:52;;;;;;;34.40;9.52;;;2.80;99.90;;;1.35;83.32;102453.69;5046146;28;20083;-84
2024/01/30 00:31:21;;;;;;;13.10;4.97;;;2.90;99.90;;;1.34;83.15;102445.88;5023833;28;20068;-84
2024/01/30 00:33:54;;;;;;;14.82;5.95;;;2.90;99.90;;;1.38;83.14;102448.56;5031140;28;20163;-84
2024/01/30 00:36:22;;;;;;;9.30;4.68;;;2.90;99.90;;;1.38;83.32;102448.56;5042528;28;20072;-83
2024/01/30 00:38:48;;;;;;;11.45;4.28;;;2.90;99.90;;;1.38;83.24;102450.28;5047036;28;20034;-83
2024/01/30 00:41:23;;;;;;;12.60;4.82;;;2.90;99.90;;;1.40;83.44;102449.47;5030791;28;20033;-83
2024/01/30 00:43:49;;;;;;;9.77;4.72;;;;;;;1.41;83.55;102445.16;5049396;28;20033;-83
2024/01/30 00:46:24;;;;;;;12.45;4.70;;;2.90;99.90;;;1.42;83.40;102450.34;5048864;28;20139;-82
2024/01/30 00:48:50;;;;;;;14.02;4.47;;;2.90;99.90;;;1.39;83.60;102450.31;5039699;28;20025;-81
2024/01/30 00:51:15;;;;;;;12.27;4.80;;;2.90;99.90;;;1.41;83.19;102452.94;5047262;28;20642;-82
2024/01/30 00:53:44;;;;;;;11.07;4.82;;;2.90;99.90;;;1.40;83.29;102457.28;5045746;28;20026;-83
2024/01/30 00:56:18;;;;;;;9.75;5.15;;;2.90;99.90;;;1.41;83.68;102455.53;5048119;28;20037;-84
2024/01/30 00:58:44;;;;;;;9.70;4.90;;;2.90;99.90;;;1.39;83.64;102449.44;5046678;28;20033;-83
2024/01/30 01:01:10;;;;;;;12.77;5.22;;;2.90;99.90;;;1.40;83.57;102453.78;5051400;28;20036;-84
2024/01/30 01:03:36;;;;;;;8.43;4.45;;;2.90;99.90;;;1.37;83.89;102449.41;5042837;28;20053;-82
2024/01/30 01:06:01;;;;;;;8.52;4.30;;;2.90;99.90;;;1.36;83.42;102442.47;5045565;28;20122;-83
2024/01/30 01:08:34;;;;;;;14.27;4.75;;;2.90;99.90;;;1.37;83.51;102439.03;5044322;28;20037;-82
2024/01/30 01:11:03;;;;;;;10.35;4.95;;;2.90;99.90;;;1.38;83.81;102442.47;5044189;28;20098;-84
2024/01/30 01:13:29;;;;;;;10.82;4.88;;;2.90;99.90;;;1.39;84.03;102439.06;5047044;28;20044;-84
2024/01/30 01:16:03;;;;;;;11.80;4.80;;;2.90;99.90;;;1.36;84.07;102436.38;5031382;28;20021;-82
2024/01/30 01:18:32;;;;;;;12.32;4.43;;;2.90;99.90;;;1.36;84.03;102437.28;5042399;28;21197;-84
2024/01/30 01:21:00;;;;;;;10.55;5.10;;;2.90;99.90;;;1.37;84.24;102446.81;5028686;28;20404;-84
2024/01/30 01:23:31;;;;;;;12.75;4.68;;;2.90;99.90;;;1.38;83.74;102439.88;5043210;28;20387;-83
2024/01/30 01:25:56;;;;;;;11.68;5.03;;;2.90;99.90;;;1.37;84.03;102446.81;5025264;28;20040;-83
2024/01/30 01:28:22;;;;;;;13.27;5.07;;;2.90;99.90;;;1.38;84.44;102443.38;5046669;28;20025;-82
2024/01/30 01:31:04;;;;;;;9.85;4.97;;;2.90;99.90;;;1.39;84.29;102444.25;5047371;28;20028;-82
2024/01/30 01:33:37;;;;;;;10.63;4.80;;;;;;;1.40;84.14;102438.19;5050263;28;20025;-85
2024/01/30 01:36:03;;;;;;;13.32;5.22;;;2.90;99.90;;;1.41;84.43;102440.84;5047330;28;20049;-83
2024/01/30 01:38:32;;;;;;;10.23;5.00;;;2.90;99.90;;;1.39;84.51;102439.06;5024538;28;20032;-84
2024/01/30 01:41:00;;;;;;;9.98;4.55;;;2.90;99.90;;;1.40;84.59;102436.50;5030614;28;20051;-82
2024/01/30 01:43:29;;;;;;;10.82;4.78;;;2.90;99.90;;;1.42;84.47;102446.88;5043492;28;20120;-83
2024/01/30 01:45:55;;;;;;;11.15;5.20;;;2.90;99.90;;;1.42;84.64;102441.69;5021326;28;20649;-83
2024/01/30 01:48:21;;;;;;;12.38;5.18;;;2.90;99.90;;;1.42;84.32;102439.97;5046103;28;20056;-83
2024/01/30 01:50:47;;;;;;;11.18;4.93;;;2.90;99.90;;;1.41;84.35;102439.97;5045286;28;20030;-83
2024/01/30 01:53:24;;;;;;;15.27;4.75;;;;;;;1.42;84.56;102442.56;5026809;28;20065;-83
2024/01/30 01:55:50;;;;;;;15.00;6.75;;;2.90;99.90;;;1.39;84.41;102439.94;5045749;28;20079;-83
2024/01/30 01:58:16;;;;;;;22.73;9.73;;;2.90;99.90;;;1.38;84.73;102439.88;5028648;28;20029;-82
2024/01/30 02:00:47;;;;;;;16.42;6.25;;;2.90;99.90;;;1.36;84.25;102442.47;5038115;28;20065;-83
2024/01/30 02:03:18;;;;;;;9.65;4.65;;;2.80;99.90;;;1.35;84.59;102442.44;5044448;28;20503;-82
2024/01/30 02:05:44;;;;;;;10.55;4.90;;;2.80;99.90;;;1.32;84.59;102438.06;5045327;28;20039;-83
2024/01/30 02:08:09;;;;;;;11.55;4.68;;;2.80;99.90;;;1.31;84.66;102451.88;5038416;28;20029;-84
2024/01/30 02:10:43;;;;;;;9.68;5.05;;;2.80;99.90;;;1.32;84.63;102438.06;5045408;28;20064;-83
2024/01/30 02:13:11;;;;;;;10.43;6.15;;;;;;;1.33;84.67;102437.22;5030226;28;20092;-82
2024/01/30 02:15:37;;;;;;;12.25;5.18;;;2.80;99.90;;;1.32;84.66;102438.06;5044377;28;20563;-84
2024/01/30 02:18:09;;;;;;;12.82;5.78;;;;;;;1.32;84.84;102435.47;5045771;28;20132;-84
2024/01/30 02:20:37;;;;;;;10.73;5.65;;;2.80;99.90;;;1.32;85.05;102440.66;5050634;28;20582;-84
2024/01/30 02:23:03;;;;;;;12.23;5.93;;;2.80;99.90;;;1.32;85.04;102431.97;5044279;28;20114;-84
2024/01/30 02:28:32;;;;;;;13.80;5.68;;;2.80;99.90;;;1.30;85.19;102429.38;4984728;28;20054;-82
2024/01/30 02:31:01;;;;;;;10.65;5.18;;;2.80;99.90;;;1.30;85.10;102433.69;4972267;28;20042;-83
2024/01/30 02:33:26;;;;;;;11.65;5.70;;;2.80;99.90;;;1.27;85.02;102429.31;4945833;28;20114;-83
2024/01/30 02:35:52;;;;;;;10.32;5.32;;;2.80;99.90;;;1.27;85.32;102428.44;4968782;28;20042;-82
2024/01/30 02:38:23;;;;;;;14.15;5.70;;;2.70;99.90;;;1.22;85.38;102418.84;4949990;28;20038;-83
2024/01/30 02:40:50;;;;;;;9.95;5.25;;;2.80;99.90;;;1.24;85.25;102424.06;4952303;28;20804;-83
2024/01/30 02:43:16;;;;;;;13.75;5.60;;;2.70;99.90;;;1.23;85.34;102422.28;4952326;28;20031;-82
2024/01/30 02:45:42;;;;;;;11.73;5.40;;;2.70;99.90;;;1.18;85.37;102422.22;4964292;28;20074;-82
2024/01/30 02:48:10;;;;;;;11.27;5.28;;;2.70;99.90;;;1.14;85.37;102419.53;4963183;28;20058;-83
2024/01/30 02:50:45;;;;;;;12.85;5.45;;;2.70;99.90;;;1.09;84.84;102424.63;4965665;28;20456;-83
2024/01/30 02:53:11;;;;;;;11.90;5.85;;;2.60;99.90;;;1.03;84.90;102422.78;4970841;28;20151;-83
2024/01/30 02:55:37;;;;;;;14.68;5.40;;;2.50;99.90;;;0.98;84.69;102427.03;4951001;28;20110;-83
2024/01/30 02:58:15;;;;;;;12.85;6.15;;;2.50;99.90;;;0.96;85.07;102420.94;4962137;28;20578;-81
2024/01/30 05:43:01;;;;;;;16.10;6.60;;;2.20;99.90;;;0.68;89.68;102380.59;5046326;28;20044;-81
2024/01/30 05:45:29;;;;;;;17.42;7.13;;;2.20;99.90;;;0.69;89.96;102376.28;5072221;22;20040;-83
2024/01/30 05:48:25;;;;;;;14.05;6.82;;;2.20;99.90;;;0.73;89.90;102380.69;5034303;28;20380;-83
2024/01/30 05:51:19;;;;;;;18.48;7.55;;;;;;;0.72;89.79;102387.59;5040524;28;20021;-84
2024/01/30 05:53:45;;;;;;;14.23;7.72;;;2.30;99.90;;;0.72;89.75;102386.72;5044329;28;20033;-84
2024/01/30 05:56:37;;;;;;;14.77;7.43;;;2.20;99.90;;;0.72;89.77;102381.53;5049022;28;20079;-84
2024/01/30 05:59:03;;;;;;;17.17;7.07;;;2.20;99.90;;;0.68;90.01;102383.19;5072047;28;20506;-84
2024/01/30 06:01:55;;;;;;;15.13;7.47;;;2.20;99.90;;;0.71;90.03;102384.97;5072665;28;20075;-84
2024/01/30 06:05:12;;;;;;;15.60;7.22;;;2.30;99.90;;;0.71;90.20;102378.03;5075952;23;20042;-85
2024/01/30 06:08:05;;;;;;;15.60;7.05;;;2.20;99.90;;;0.72;90.57;102374.63;4958862;28;20092;-84
2024/01/30 06:10:44;;;;;;;14.02;7.18;;;;;;;0.74;90.41;102379.84;4881488;29;20495;-84
2024/01/30 06:16:55;;;;;;;16.65;7.57;;;2.30;99.90;;;0.73;90.04;102378.94;4823035;29;20049;-84
2024/01/30 06:19:35;;;;;;;16.50;7.63;;;2.30;99.90;;;0.74;90.09;102382.44;4820213;29;20042;-84
2024/01/30 06:25:42;;;;;;;18.85;7.35;;;2.30;99.90;;;0.69;91.47;102376.28;5037096;22;20487;-84
2024/01/30 06:31:04;;;;;;;14.68;6.95;;;;;;;0.74;91.57;102375.53;4999171;28;20060;-84
2024/01/30 06:34:16;;;;;;;15.80;7.35;;;2.30;99.90;;;0.73;91.50;102368.56;5013538;28;20053;-84
2024/01/30 06:37:38;;;;;;;13.88;7.10;;;2.30;99.90;;;0.71;91.94;102369.41;4918854;29;20052;-85
2024/01/30 06:40:05;;;;;;;19.73;7.45;;;;;;;0.67;91.38;102363.28;4921285;29;20529;-85
2024/01/30 06:43:46;;;;;;;13.48;6.50;;;2.20;99.90;;;0.64;92.17;102358.03;4920173;29;20038;-84
2024/01/30 06:49:55;;;;;;;12.88;6.70;;;2.20;99.90;;;0.67;92.43;102358.13;4853621;29;20180;-85
2024/01/30 06:52:23;;;;;;;12.48;6.70;;;;;;;0.68;92.60;102346.00;4832276;29;20045;-85
2024/01/30 06:55:04;;;;;;;14.30;6.68;;;2.20;99.90;;;0.71;92.33;102356.44;4847203;29;20045;-86
2024/01/30 06:57:45;;;;;;;17.50;7.47;;;2.20;99.90;;;0.69;92.45;102353.84;4808722;29;20046;-85
2024/01/30 07:00:56;;;;;;;17.73;7.28;;;2.20;99.90;;;0.68;91.85;102361.56;4799416;29;20050;-86
2024/01/30 07:06:05;;;;;;;12.55;7.18;;;2.30;99.90;;;0.71;91.41;102356.44;5041164;22;20062;-85
2024/01/30 07:08:43;;;;;;;12.90;7.60;;;2.20;99.90;;;0.70;91.26;102354.69;4993292;28;20026;-85
2024/01/30 07:14:35;;;;;;;14.45;7.65;;;;;;;0.70;90.79;102362.47;5006549;23;20079;-85
2024/01/30 07:17:46;;;;;;;16.45;7.30;;;2.20;99.90;;;0.70;90.48;102352.97;5049727;28;20037;-85
2024/01/30 07:28:57;;;;;;;13.77;6.97;;;2.20;99.90;;;0.77;90.26;102333.22;5029368;28;20061;-87
2024/01/30 07:31:27;;;;;;;13.45;7.43;;;;;;;0.78;90.24;102340.19;5027740;28;20040;-87
2024/01/30 07:35:06;;;;;;;13.00;7.03;;;2.30;99.90;;;0.78;89.96;102335.84;5026703;28;20560;-87
2024/01/30 07:38:06;;;;;;;15.43;7.20;;;2.30;99.90;;;0.78;89.95;102335.84;5014796;28;20057;-87
2024/01/30 07:41:26;;;;;;;;;;;;;;;;;;;;;
2024/01/30 07:44:13;;;;;;;21.23;10.30;;;;;;;0.81;90.11;102330.72;4948778;22;20794;-87
2024/01/30 07:47:08;;;;;;;44.08;21.00;;;2.30;99.90;;;0.85;90.07;102328.19;5074279;28;20383;-85
2024/01/30 07:49:35;;;;;;;27.90;15.05;;;;;;;0.88;90.39;102323.06;5020968;28;20071;-87
2024/01/30 07:56:46;;;;;;;21.20;11.43;;;2.40;99.90;;;0.92;90.33;102332.66;5073764;22;20526;-87
2024/01/30 07:59:25;;;;;;;20.25;8.95;;;;;;;0.95;90.50;102325.81;5001235;28;20044;-87
2024/01/30 08:02:15;;;;;;;16.05;8.05;;;2.40;99.90;;;0.97;90.55;102321.53;5048910;28;20036;-87
2024/01/30 08:05:15;;;;;;;18.17;9.90;;;;;;;1.00;90.50;102329.34;5064995;23;20037;-85
2024/01/30 08:08:06;;;;;;;;;;;;;;;;;;;;;
2024/01/30 08:10:46;;;;;;;;;;;;;;;;;;;;;
2024/01/30 08:13:44;;;;;;;19.17;9.55;;;2.60;99.90;;;1.04;91.35;102351.06;4932668;29;20762;-87
2024/01/30 08:16:45;;;;;;;19.77;9.73;;;2.60;99.90;;;1.05;92.04;102344.13;5035901;28;20045;-84
2024/01/30 08:19:26;;;;;;;23.30;10.95;;;;;;;1.08;91.98;102339.88;4965133;28;20559;-87
2024/01/30 08:22:04;;;;;;;23.83;10.27;;;2.60;99.90;;;1.11;92.30;102332.16;5000962;28;20046;-87
2024/01/30 08:24:45;;;;;;;19.05;9.90;;;2.60;99.90;;;1.16;91.64;102337.41;5004662;22;20038;-87
2024/01/30 08:27:38;;;;;;;23.08;10.68;;;2.70;99.90;;;1.21;92.02;102328.00;4979487;28;20400;-88
2024/01/30 08:33:15;;;;;;;17.67;10.02;;;;;;;1.28;91.29;102335.03;4903492;29;20040;-87
2024/01/30 08:36:06;;;;;;;;;;;;;;;;;;;;;
2024/01/30 08:39:46;;;;;;;;;;;;;;;;;;;;;
2024/01/30 08:42:37;;;;;;;20.50;11.43;;;2.90;99.90;;;1.47;91.21;102344.03;5069933;28;20051;-87
2024/01/30 08:45:57;;;;;;;;;;;;;;;;;;;;;
2024/01/30 08:48:25;;;;;;;24.23;10.77;;;;;;;1.63;91.39;102340.81;5052819;28;20029;-87
2024/01/30 08:51:25;;;;;;;16.90;9.70;;;3.10;99.90;;;1.73;91.31;102338.34;5051579;28;20037;-85
2024/01/30 08:55:04;;;;;;;16.65;9.70;;;3.20;99.90;;;1.79;91.10;102341.06;4974810;28;20129;-85
2024/01/30 08:57:45;;;;;;;;;;;3.30;99.90;;;1.83;91.48;102348.91;4954034;28;20093;-85
2024/01/30 09:04:45;;;;;;;19.25;10.73;;;3.40;99.90;;;1.97;90.87;102340.50;4930357;29;20039;-85
2024/01/30 09:07:39;;;;;;;46.58;22.75;;;3.40;99.90;;;2.03;91.59;102335.34;4929262;29;20040;-88
2024/01/30 09:10:37;;;;;;;46.90;21.02;;;3.50;99.90;;;2.15;91.09;102342.47;4892704;29;20114;-88
2024/01/30 09:13:18;;;;;;;24.70;12.80;;;;;;;2.23;91.07;102346.91;4883753;29;20045;-85
2024/01/30 09:15:56;;;;;;;26.35;13.65;;;;;;;2.31;91.34;102346.13;4890326;29;20044;-85
2024/01/30 09:18:36;;;;;;;23.05;10.50;;;3.70;99.90;;;2.38;91.02;102345.38;4879704;29;20037;-86
2024/01/30 09:21:15;;;;;;;22.70;10.48;;;3.80;99.90;;;2.47;90.79;102348.09;4867569;29;20128;-85
2024/01/30 09:27:06;;;;;;;20.30;10.75;;;;;;;2.60;91.05;102346.53;5034701;28;20053;-86
2024/01/30 09:30:05;;;;;;;37.63;24.88;;;4.00;99.90;;;2.66;90.86;102349.22;5011590;28;20030;-86
2024/01/30 09:32:55;;;;;;;27.73;16.55;;;4.10;99.90;;;2.72;90.58;102345.78;4943158;29;20036;-86
2024/01/30 09:35:56;;;;;;;19.42;11.07;;;4.20;99.90;;;2.78;90.63;102344.13;5002516;23;20065;-85
2024/01/30 09:39:04;;;;;;;53.05;18.77;;;4.20;99.90;;;2.86;90.59;102344.22;5029799;28;20037;-85
2024/01/30 09:46:05;;;;;;;28.77;12.32;;;4.30;99.90;;;2.94;90.14;102326.09;5040900;22;20052;-86
2024/01/30 09:49:27;;;;;;;;;;;;;;;;;;;;;
2024/01/30 09:52:18;;;;;;;23.25;10.13;;;;;;;3.04;90.04;102339.22;4949659;28;20047;-84
2024/01/30 09:59:26;;;;;;;21.73;10.30;;;4.50;99.90;;;3.08;90.21;102333.19;5015201;28;20072;-86
2024/01/30 10:06:55;;;;;;;16.98;9.45;;;4.60;99.90;;;3.20;90.59;102337.66;4901940;29;20039;-86
2024/01/30 10:10:06;;;;;;;18.88;9.52;;;;;;;3.18;90.57;102334.16;4827082;29;20109;-86
2024/01/30 10:13:16;;;;;;;22.33;9.88;;;4.60;99.90;;;3.21;89.91;102328.97;4818355;29;20046;-86
2024/01/30 10:16:47;;;;;;;24.55;10.32;;;4.70;99.90;;;3.23;90.18;102331.59;5033886;22;20136;-86
2024/01/30 10:19:23;;;;;;;21.23;10.02;;;4.60;99.90;;;3.21;89.71;102330.72;5022073;28;20029;-85
2024/01/30 10:25:07;;;;;;;22.40;11.10;;;;;;;3.26;89.80;102329.91;5009467;28;20125;-86
2024/01/30 10:28:59;;;;;;;;;;;;;;;;;;;;;
2024/01/30 10:31:25;;;;;;;17.38;9.45;;;;;;;3.22;90.37;102330.72;4943635;29;20078;-85
2024/01/30 10:34:11;;;;;;;21.73;10.15;;;4.70;99.90;;;3.29;90.51;102316.03;4932008;29;20125;-85
2024/01/30 10:37:46;;;;;;;;;;;;;;;;;;;;;
2024/01/30 10:47:26;;;;;;;24.67;13.57;;;4.90;99.90;;;3.45;90.70;102306.63;5030682;28;20049;-84
2024/01/30 10:50:08;;;;;;;24.13;12.38;;;4.90;99.90;;;3.47;90.68;102305.75;4958794;28;20079;-84
2024/01/30 10:59:31;;;;;;;23.10;11.10;;;;;;;3.65;91.12;102297.25;5008247;28;20052;-84
2024/01/30 11:10:24;;;;;;;20.02;10.25;;;5.40;99.90;;;4.07;92.66;102285.31;4821046;29;20042;-83
2024/01/30 11:16:48;;;;;;;21.08;10.70;;;5.70;99.90;;;4.39;92.04;102278.53;4771740;30;20166;-84
2024/01/30 11:19:40;;;;;;;;;;;;;;;;;;;;;
2024/01/30 11:22:56;;;;;;;23.25;10.90;;;6.10;99.90;;;4.84;91.01;102279.53;4734826;30;20141;-82
2024/01/30 11:25:55;;;;;;;24.00;11.10;;;;;;;5.05;90.87;102278.69;4736249;30;20090;-82
2024/01/30 11:29:07;;;;;;;19.20;10.48;;;;;;;5.27;90.06;102271.72;4737362;30;20071;-81
2024/01/30 11:33:07;;;;;;;24.42;9.82;;;6.70;99.90;;;5.41;88.86;102271.75;4745581;30;20128;-83
2024/01/30 11:35:47;;;;;;;19.38;10.30;;;;;;;5.54;88.11;102266.50;4731647;29;20054;-83
2024/01/30 11:38:26;;;;;;;20.55;10.00;;;6.90;99.90;;;5.57;86.53;102263.00;4796439;29;20067;-82
2024/01/30 11:41:18;;;;;;;21.13;10.13;;;;;;;5.62;86.60;102263.03;4804262;29;20051;-83
2024/01/30 11:44:15;;;;;;;18.42;10.25;;;7.00;99.90;;;5.73;86.30;102258.63;4829916;29;20050;-83
2024/01/30 11:46:56;;;;;;;18.33;9.75;;;;;;;5.90;86.06;102258.59;4807149;29;20051;-83
2024/01/30 11:50:08;;;;;;;23.00;10.45;;;;;;;6.04;85.88;102250.75;4850181;29;20133;-81
2024/01/30 11:52:46;;;;;;;20.88;10.90;;;7.30;99.90;;;6.13;85.17;102255.94;4854659;29;20075;-82
2024/01/30 11:56:14;;;;;;;22.73;10.55;;;7.50;99.90;;;6.22;84.68;102245.44;4993355;23;20061;-83
2024/01/30 11:58:56;;;;;;;21.30;9.50;;;;;;;6.30;84.54;102243.66;4962835;28;20035;-84
2024/01/30 12:04:46;;;;;;;22.17;10.02;;;7.70;99.90;;;6.42;83.69;102231.41;4926501;29;20126;-84
2024/01/30 12:07:24;;;;;;;17.75;10.20;;;7.70;99.90;;;6.44;84.13;102232.28;4924153;29;20744;-83
2024/01/30 12:10:05;;;;;;;22.02;10.00;;;7.70;99.90;;;6.43;83.43;102226.16;4912685;29;20032;-83
2024/01/30 12:12:47;;;;;;;19.13;9.65;;;7.70;99.90;;;6.45;83.43;102220.91;4898633;29;20450;-82
2024/01/30 12:15:28;;;;;;;17.40;9.52;;;7.70;99.90;;;6.40;83.70;102214.84;4929190;29;20038;-83
2024/01/30 12:21:07;;;;;;;18.60;9.73;;;7.70;99.90;;;6.40;83.45;102220.06;4908563;29;20134;-82
2024/01/30 12:27:08;;;;;;;19.58;8.35;;;7.70;99.90;;;6.42;84.33;102215.72;5067406;23;20052;-81
2024/01/30 12:30:06;;;;;;;19.35;9.45;;;7.80;99.90;;;6.51;84.72;102202.56;4885758;29;20096;-83
2024/01/30 12:32:47;;;;;;;20.90;9.32;;;7.90;99.90;;;6.57;83.89;102200.78;4878572;29;20048;-82
2024/01/30 12:35:23;;;;;;;22.67;9.68;;;;;;;6.65;83.95;102207.69;4859176;29;20080;-83
2024/01/30 12:41:36;;;;;;;16.38;9.50;;;;;;;6.74;83.20;102198.03;4801566;29;20038;-83
2024/01/30 12:44:14;;;;;;;17.55;8.75;;;8.00;99.90;;;6.73;82.34;102196.28;4869785;22;20401;-83
2024/01/30 12:46:43;;;;;;;18.25;9.70;;;8.10;99.90;;;6.74;83.28;102194.56;5017922;28;20559;-83
2024/01/30 12:49:38;;;;;;;23.13;9.52;;;8.10;99.90;;;6.75;83.03;102188.44;5021547;28;20100;-83
2024/01/30 12:52:19;;;;;;;24.17;9.13;;;8.10;99.90;;;6.71;83.72;102190.19;5020074;28;20082;-82
2024/01/30 12:54:57;;;;;;;16.98;9.20;;;8.10;99.90;;;6.73;83.43;102185.81;5021923;28;20121;-82
2024/01/30 12:57:31;;;;;;;18.27;9.40;;;8.10;99.90;;;6.76;83.13;102191.06;5011300;28;20033;-82
2024/01/30 12:59:57;;;;;;;16.92;9.02;;;8.10;99.90;;;6.75;82.94;102197.16;5010395;28;20044;-82
2024/01/30 13:02:23;;;;;;;18.55;9.38;;;8.10;99.90;;;6.78;83.51;102191.03;4996774;28;20026;-82
2024/01/30 13:04:49;;;;;;;19.17;9.60;;;8.10;99.90;;;6.81;83.63;102182.31;5013792;28;20494;-82
2024/01/30 13:07:15;;;;;;;20.38;9.55;;;;;;;6.85;83.61;102184.88;5010878;28;20479;-82
2024/01/30 13:09:53;;;;;;;17.70;9.50;;;8.20;99.90;;;6.93;84.06;102187.41;5026977;28;20498;-82
2024/01/30 13:12:26;;;;;;;19.65;9.93;;;8.20;99.90;;;6.94;84.00;102183.94;4993087;28;20029;-82
2024/01/30 13:14:55;;;;;;;19.10;9.32;;;;;;;7.01;84.14;102183.00;4999182;28;20025;-83
2024/01/30 13:17:21;;;;;;;14.95;8.88;;;8.30;99.90;;;7.06;83.94;102189.06;5025131;28;20021;-82
2024/01/30 13:19:49;;;;;;;16.23;8.88;;;8.30;99.90;;;7.07;83.80;102188.19;4996226;28;20060;-82
2024/01/30 13:22:43;;;;;;;19.73;9.63;;;8.40;99.90;;;7.07;83.12;102185.56;5013161;28;20858;-83
2024/01/30 13:25:18;;;;;;;21.13;9.93;;;8.40;99.90;;;7.08;83.35;102186.44;4956287;28;20099;-82
2024/01/30 13:27:44;;;;;;;19.88;9.43;;;8.30;99.90;;;7.02;83.35;102176.88;4945286;28;20566;-82
2024/01/30 13:30:11;;;;;;;21.58;9.38;;;8.30;99.90;;;6.99;83.65;102169.03;4958512;28;20043;-82
2024/01/30 13:32:46;;;;;;;18.88;9.57;;;8.30;99.90;;;6.94;83.45;102165.59;4958506;28;20085;-83
2024/01/30 13:35:24;;;;;;;17.20;9.27;;;8.30;99.90;;;6.86;83.82;102154.31;4955466;28;20046;-83
2024/01/30 13:37:53;;;;;;;19.25;10.05;;;8.20;99.90;;;6.87;84.48;102159.56;4925470;28;20039;-82
2024/01/30 13:40:26;;;;;;;25.20;10.80;;;8.20;99.90;;;6.84;84.01;102161.31;4941889;28;20036;-82
2024/01/30 13:42:55;;;;;;;20.55;10.07;;;8.20;99.90;;;6.75;84.93;102155.25;4944594;28;20113;-82
2024/01/30 13:45:35;;;;;;;20.85;9.82;;;8.10;99.90;;;6.77;85.11;102161.34;4942249;28;20094;-82
2024/01/30 13:48:03;;;;;;;28.35;10.93;;;8.10;99.90;;;6.70;85.13;102153.59;4945548;28;20047;-82
2024/01/30 13:50:35;;;;;;;19.30;10.30;;;;;;;6.72;85.38;102157.06;4927038;29;20110;-83
2024/01/30 13:53:07;;;;;;;20.83;9.90;;;8.10;99.90;;;6.73;85.28;102149.16;4946381;28;20545;-83
2024/01/30 13:55:44;;;;;;;20.48;10.70;;;;;;;6.80;85.88;102155.22;4929771;29;20460;-83
2024/01/30 13:58:23;;;;;;;17.23;10.05;;;;;;;6.83;85.52;102152.59;4945376;28;20035;-84
2024/01/30 14:00:59;;;;;;;;;;;;;;;;;;;;;
2024/01/30 14:03:25;;;;;;;25.13;11.13;;;;;;;6.88;85.74;102156.03;5015126;28;20048;-82
2024/01/30 14:05:55;;;;;;;23.70;10.40;;;;;;;6.90;85.04;102149.03;5067735;23;20044;-82
2024/01/30 14:09:04;;;;;;;22.88;11.50;;;8.20;99.90;;;6.93;85.57;102151.66;5052891;28;20037;-81
2024/01/30 14:11:46;;;;;;;20.63;11.13;;;8.30;99.90;;;6.94;85.69;102150.75;4997511;28;20066;-83
2024/01/30 14:14:58;;;;;;;24.85;11.38;;;8.30;99.90;;;6.96;84.91;102156.00;4966308;28;20094;-84
2024/01/30 14:17:48;;;;;;;;;;;;;;;;;;;;;
2024/01/30 14:20:18;;;;;;;22.33;10.57;;;;;;;6.89;84.90;102149.94;4998007;28;20044;-82
2024/01/30 14:22:55;;;;;;;19.77;10.77;;;8.20;99.90;;;6.88;85.44;102144.69;4988476;28;20125;-82
2024/01/30 14:25:23;;;;;;;25.23;10.23;;;8.20;99.90;;;6.83;85.23;102142.13;5044058;22;20049;-82
2024/01/30 14:27:56;;;;;;;23.02;11.35;;;;;;;6.81;85.72;102143.88;5016666;28;20040;-82
2024/01/30 14:30:21;;;;;;;21.80;10.48;;;8.10;99.90;;;6.77;85.35;102142.16;5033071;28;20033;-82
2024/01/30 14:32:48;;;;;;;27.60;10.77;;;8.10;99.90;;;6.73;85.57;102143.94;5028673;28;20163;-82
2024/01/30 14:35:14;;;;;;;21.73;10.55;;;8.00;99.90;;;6.70;85.84;102146.59;5015575;28;20045;-82
2024/01/30 14:38:07;;;;;;;22.00;10.30;;;8.00;99.90;;;6.68;86.07;102144.88;5005344;28;20042;-82
2024/01/30 14:40:45;;;;;;;23.50;10.55;;;8.00;99.90;;;6.60;86.01;102141.44;5025937;28;20041;-83
2024/01/30 14:43:39;;;;;;;;;;;;;;;;;;;;;
2024/01/30 14:46:02;;;;;;;23.33;10.30;;;7.80;99.90;;;6.47;86.81;102136.28;5084689;23;20040;-82
2024/01/30 14:48:28;;;;;;;21.52;10.25;;;7.80;99.90;;;6.45;86.99;102135.41;5053304;28;20060;-82
2024/01/30 14:50:54;;;;;;;17.45;10.55;;;7.80;99.90;;;6.43;86.69;102133.69;5055374;28;20486;-82
2024/01/30 14:53:22;;;;;;;18.45;10.35;;;7.80;99.90;;;6.43;87.13;102138.94;5053472;28;20030;-82
2024/01/30 14:55:56;;;;;;;24.10;10.05;;;;;;;6.41;87.26;102132.84;5060362;28;20064;-81
2024/01/30 14:58:22;;;;;;;19.40;10.38;;;7.70;99.90;;;6.36;86.95;102128.50;5060247;28;20506;-82
2024/01/30 15:00:48;;;;;;;20.95;10.40;;;7.70;99.90;;;6.32;87.14;102120.69;5061961;28;20358;-82
2024/01/30 15:03:29;;;;;;;19.50;10.43;;;;;;;6.30;87.13;102133.78;5133462;22;20124;-84
2024/01/30 15:05:55;;;;;;;18.60;10.40;;;7.60;99.90;;;6.26;87.10;102126.81;5017131;28;20495;-84
2024/01/30 15:08:36;;;;;;;19.70;9.60;;;;;;;6.28;86.96;102135.53;5000039;28;20057;-83
2024/01/30 15:11:15;;;;;;;21.38;10.32;;;7.60;99.90;;;6.25;87.60;102135.56;5035508;28;20037;-83
2024/01/30 15:14:04;;;;;;;20.98;9.98;;;7.60;99.90;;;6.19;87.31;102125.13;5000420;28;20109;-84
2024/01/30 15:16:33;;;;;;;22.02;10.45;;;7.60;99.90;;;6.22;87.02;102121.63;5029558;28;20061;-84
2024/01/30 15:18:59;;;;;;;26.30;10.68;;;7.50;99.90;;;6.24;86.89;102133.84;5009996;28;20105;-84
2024/01/30 15:21:38;;;;;;;24.23;12.23;;;;;;;6.22;87.40;102119.91;5000583;28;20030;-84
2024/01/30 15:24:12;;;;;;;18.98;10.52;;;7.50;99.90;;;6.19;86.71;102122.50;5013277;28;20104;-83
2024/01/30 15:26:44;;;;;;;20.40;10.98;;;;;;;6.15;86.86;102119.06;5005637;28;20415;-84
2024/01/30 15:29:31;;;;;;;;;;;;;;;;;;;;;
2024/01/30 15:31:57;;;;;;;24.10;11.45;;;7.40;99.90;;;6.04;85.89;102125.22;5036559;28;20442;-83
2024/01/30 15:34:26;;;;;;;26.85;11.98;;;;;;;5.99;86.29;102119.16;5001175;28;20036;-85
2024/01/30 15:37:04;;;;;;;23.77;10.30;;;;;;;5.89;87.38;102120.91;5020174;28;20036;-84
2024/01/30 15:39:31;;;;;;;22.90;9.85;;;7.20;99.90;;;5.79;88.02;102117.47;5010827;28;20105;-85
2024/01/30 15:42:23;;;;;;;22.48;10.30;;;;;;;5.78;88.40;102134.03;4999694;28;20052;-84
2024/01/30 15:44:49;;;;;;;21.48;10.10;;;7.10;99.90;;;5.74;88.25;102127.06;4943339;28;20046;-84
2024/01/30 15:47:15;;;;;;;19.95;9.48;;;;;;;5.75;88.46;102128.81;4947803;28;20446;-84
2024/01/30 15:49:47;;;;;;;18.00;9.20;;;;;;;5.72;87.92;102126.19;4943658;28;20129;-84
2024/01/30 15:52:17;;;;;;;18.63;9.88;;;;;;;5.70;88.33;102131.47;4941822;29;20036;-84
2024/01/30 15:54:55;;;;;;;19.95;9.65;;;7.00;99.90;;;5.69;88.00;102128.84;4947610;28;20035;-84
2024/01/30 15:57:24;;;;;;;14.75;8.70;;;;;;;5.67;87.83;102131.44;4943185;29;20039;-84
2024/01/30 15:59:59;;;;;;;19.58;8.23;;;;;;;5.64;88.17;102128.88;4947926;28;20588;-84
2024/01/30 16:02:28;;;;;;;23.17;8.35;;;7.00;99.90;;;5.55;88.77;102126.28;4949573;28;20080;-84
2024/01/30 16:05:14;;;;;;;16.65;8.02;;;;;;;5.54;88.92;102133.22;4948224;28;20078;-84
2024/01/30 16:08:03;;;;;;;;;;;6.90;99.90;;;5.41;89.29;102125.44;4948421;28;20030;-85
2024/01/30 16:10:38;;;;;;;17.65;8.45;;;;;;;5.42;90.19;102125.47;4890637;29;19915;-85
2024/01/30 16:13:04;;;;;;;19.08;8.57;;;;;;;5.42;89.74;102121.94;4890663;29;20056;-84